Hildreth, Nebraska
Current Conditions -  °F | °C
As of 1:15 PM on Sunday 21 Dec 2014 (Local Time) from KHDE Reporting Station
Haze Haze  
Wind Chill: 28°   Ceiling: 100
Heat Index: 36°   Visibility: 1.2mi
Dew Point: 35°   Wind: 12mph
Humidity: 96%   Direction: 210°SSW
Pressure: 29.66"   Gusts: 21mph
Location:  40.34°N, 99.04°W
Report Text: KHDE 211915Z AUTO 21010G18KT 1 1/4SM BR OVC001 02/02 A2966 RMK AO2 T00240018
Loading
Personal Weather Stations






























Interactive Weather Map New forecast layout! Learn more

10-Day Weather Forecast

Advertisements
Track Severe Weather on mobile